sensor_id;sensor_type;location;lat;lon;timestamp;P1;durP1;ratioP1;P2;durP2;ratioP2
10586;SDS011;5341;47.606;7.576;2023-02-28T00:01:47;4.00;;;3.47;;
10586;SDS011;5341;47.606;7.576;2023-02-28T00:04:15;3.78;;;3.33;;
10586;SDS011;5341;47.606;7.576;2023-02-28T00:06:42;4.60;;;3.80;;
10586;SDS011;5341;47.606;7.576;2023-02-28T00:09:09;4.03;;;3.40;;
10586;SDS011;5341;47.606;7.576;2023-02-28T00:11:36;4.25;;;3.60;;
10586;SDS011;5341;47.606;7.576;2023-02-28T00:14:05;3.97;;;3.22;;
10586;SDS011;5341;47.606;7.576;2023-02-28T00:16:33;5.25;;;3.78;;
10586;SDS011;5341;47.606;7.576;2023-02-28T00:19:00;5.70;;;3.70;;
10586;SDS011;5341;47.606;7.576;2023-02-28T00:21:28;4.07;;;3.30;;
10586;SDS011;5341;47.606;7.576;2023-02-28T00:23:55;4.28;;;3.47;;
10586;SDS011;5341;47.606;7.576;2023-02-28T00:26:23;3.97;;;3.50;;
10586;SDS011;5341;47.606;7.576;2023-02-28T00:28:51;4.55;;;3.65;;
10586;SDS011;5341;47.606;7.576;2023-02-28T00:31:24;4.68;;;3.90;;
10586;SDS011;5341;47.606;7.576;2023-02-28T00:33:51;3.83;;;3.38;;
10586;SDS011;5341;47.606;7.576;2023-02-28T00:36:20;4.10;;;3.55;;
10586;SDS011;5341;47.606;7.576;2023-02-28T00:38:47;4.03;;;3.60;;
10586;SDS011;5341;47.606;7.576;2023-02-28T00:41:15;4.82;;;3.45;;
10586;SDS011;5341;47.606;7.576;2023-02-28T00:43:42;3.95;;;3.40;;
10586;SDS011;5341;47.606;7.576;2023-02-28T00:46:10;4.00;;;3.47;;
10586;SDS011;5341;47.606;7.576;2023-02-28T00:48:39;4.40;;;3.50;;
10586;SDS011;5341;47.606;7.576;2023-02-28T00:51:07;5.68;;;3.53;;
10586;SDS011;5341;47.606;7.576;2023-02-28T00:53:35;3.80;;;3.30;;
10586;SDS011;5341;47.606;7.576;2023-02-28T00:56:02;3.92;;;3.53;;
10586;SDS011;5341;47.606;7.576;2023-02-28T00:58:31;4.13;;;3.63;;
10586;SDS011;5341;47.606;7.576;2023-02-28T01:00:58;3.85;;;3.30;;
10586;SDS011;5341;47.606;7.576;2023-02-28T01:03:26;4.22;;;3.47;;
10586;SDS011;5341;47.606;7.576;2023-02-28T01:05:55;4.20;;;3.33;;
10586;SDS011;5341;47.606;7.576;2023-02-28T01:08:22;3.97;;;3.58;;
10586;SDS011;5341;47.606;7.576;2023-02-28T01:10:51;4.30;;;3.75;;
10586;SDS011;5341;47.606;7.576;2023-02-28T01:13:19;3.83;;;3.45;;
10586;SDS011;5341;47.606;7.576;2023-02-28T01:15:49;4.20;;;3.60;;
10586;SDS011;5341;47.606;7.576;2023-02-28T01:18:18;4.00;;;3.53;;
10586;SDS011;5341;47.606;7.576;2023-02-28T01:20:46;4.80;;;3.60;;
10586;SDS011;5341;47.606;7.576;2023-02-28T01:23:17;5.88;;;3.83;;
10586;SDS011;5341;47.606;7.576;2023-02-28T01:25:45;5.35;;;3.80;;
10586;SDS011;5341;47.606;7.576;2023-02-28T01:28:13;4.05;;;3.55;;
10586;SDS011;5341;47.606;7.576;2023-02-28T01:30:40;4.43;;;3.85;;
10586;SDS011;5341;47.606;7.576;2023-02-28T01:33:07;4.28;;;3.47;;
10586;SDS011;5341;47.606;7.576;2023-02-28T01:35:35;4.15;;;3.75;;
10586;SDS011;5341;47.606;7.576;2023-02-28T01:38:03;4.00;;;3.60;;
10586;SDS011;5341;47.606;7.576;2023-02-28T01:40:33;7.05;;;3.88;;
10586;SDS011;5341;47.606;7.576;2023-02-28T01:43:00;3.80;;;3.47;;
10586;SDS011;5341;47.606;7.576;2023-02-28T01:45:30;4.10;;;3.65;;
10586;SDS011;5341;47.606;7.576;2023-02-28T01:47:59;3.95;;;3.55;;
10586;SDS011;5341;47.606;7.576;2023-02-28T01:50:31;4.13;;;3.70;;
10586;SDS011;5341;47.606;7.576;2023-02-28T01:53:02;4.88;;;3.72;;
10586;SDS011;5341;47.606;7.576;2023-02-28T01:55:35;4.85;;;3.67;;
10586;SDS011;5341;47.606;7.576;2023-02-28T01:58:04;4.97;;;4.05;;
10586;SDS011;5341;47.606;7.576;2023-02-28T02:00:32;3.92;;;3.55;;
10586;SDS011;5341;47.606;7.576;2023-02-28T02:03:01;4.28;;;3.65;;
10586;SDS011;5341;47.606;7.576;2023-02-28T02:05:36;4.07;;;3.60;;
10586;SDS011;5341;47.606;7.576;2023-02-28T02:08:06;4.32;;;3.70;;
10586;SDS011;5341;47.606;7.576;2023-02-28T02:10:39;4.40;;;3.42;;
10586;SDS011;5341;47.606;7.576;2023-02-28T02:16:09;3.97;;;3.33;;
10586;SDS011;5341;47.606;7.576;2023-02-28T02:18:46;4.18;;;3.78;;
10586;SDS011;5341;47.606;7.576;2023-02-28T02:21:29;4.40;;;3.80;;
10586;SDS011;5341;47.606;7.576;2023-02-28T02:27:31;4.00;;;3.42;;
10586;SDS011;5341;47.606;7.576;2023-02-28T02:33:35;4.90;;;3.60;;
10586;SDS011;5341;47.606;7.576;2023-02-28T02:36:29;4.75;;;4.05;;
10586;SDS011;5341;47.606;7.576;2023-02-28T02:39:04;4.43;;;3.42;;
10586;SDS011;5341;47.606;7.576;2023-02-28T02:41:39;4.03;;;3.28;;
10586;SDS011;5341;47.606;7.576;2023-02-28T02:44:13;4.88;;;3.65;;
10586;SDS011;5341;47.606;7.576;2023-02-28T02:46:48;3.42;;;3.13;;
10586;SDS011;5341;47.606;7.576;2023-02-28T02:49:21;3.92;;;3.30;;
10586;SDS011;5341;47.606;7.576;2023-02-28T02:51:54;4.40;;;3.78;;
10586;SDS011;5341;47.606;7.576;2023-02-28T02:54:26;4.13;;;3.22;;
10586;SDS011;5341;47.606;7.576;2023-02-28T02:56:56;4.45;;;3.13;;
10586;SDS011;5341;47.606;7.576;2023-02-28T02:59:28;4.63;;;3.70;;
10586;SDS011;5341;47.606;7.576;2023-02-28T03:01:59;4.53;;;3.33;;
10586;SDS011;5341;47.606;7.576;2023-02-28T03:04:30;3.72;;;3.30;;
10586;SDS011;5341;47.606;7.576;2023-02-28T03:07:02;4.60;;;3.63;;
10586;SDS011;5341;47.606;7.576;2023-02-28T03:09:32;3.50;;;3.20;;
10586;SDS011;5341;47.606;7.576;2023-02-28T03:12:01;3.30;;;3.00;;
10586;SDS011;5341;47.606;7.576;2023-02-28T03:14:33;3.75;;;3.35;;
10586;SDS011;5341;47.606;7.576;2023-02-28T03:17:36;3.92;;;3.35;;
10586;SDS011;5341;47.606;7.576;2023-02-28T03:20:23;3.88;;;3.45;;
10586;SDS011;5341;47.606;7.576;2023-02-28T03:23:06;5.03;;;3.40;;
10586;SDS011;5341;47.606;7.576;2023-02-28T03:25:43;4.28;;;3.72;;
10586;SDS011;5341;47.606;7.576;2023-02-28T03:28:21;4.80;;;3.63;;
10586;SDS011;5341;47.606;7.576;2023-02-28T03:30:56;4.43;;;3.58;;
10586;SDS011;5341;47.606;7.576;2023-02-28T03:33:30;3.70;;;3.40;;
10586;SDS011;5341;47.606;7.576;2023-02-28T03:36:02;4.00;;;3.50;;
10586;SDS011;5341;47.606;7.576;2023-02-28T03:38:36;4.07;;;3.67;;
10586;SDS011;5341;47.606;7.576;2023-02-28T03:41:09;4.55;;;4.03;;
10586;SDS011;5341;47.606;7.576;2023-02-28T03:43:41;4.57;;;3.88;;
10586;SDS011;5341;47.606;7.576;2023-02-28T03:46:12;4.72;;;3.53;;
10586;SDS011;5341;47.606;7.576;2023-02-28T03:48:48;4.50;;;3.88;;
10586;SDS011;5341;47.606;7.576;2023-02-28T03:51:20;6.05;;;4.20;;
10586;SDS011;5341;47.606;7.576;2023-02-28T03:53:56;4.30;;;3.90;;
10586;SDS011;5341;47.606;7.576;2023-02-28T03:56:30;5.15;;;3.65;;
10586;SDS011;5341;47.606;7.576;2023-02-28T03:59:02;4.35;;;3.60;;
10586;SDS011;5341;47.606;7.576;2023-02-28T04:01:35;5.47;;;3.75;;
10586;SDS011;5341;47.606;7.576;2023-02-28T04:04:06;5.28;;;3.88;;
10586;SDS011;5341;47.606;7.576;2023-02-28T04:06:34;4.28;;;3.85;;
10586;SDS011;5341;47.606;7.576;2023-02-28T04:09:04;4.43;;;3.65;;
10586;SDS011;5341;47.606;7.576;2023-02-28T04:11:34;4.28;;;3.88;;
10586;SDS011;5341;47.606;7.576;2023-02-28T04:14:04;4.82;;;4.30;;
10586;SDS011;5341;47.606;7.576;2023-02-28T04:16:33;6.53;;;4.03;;
10586;SDS011;5341;47.606;7.576;2023-02-28T04:19:03;4.53;;;4.05;;
10586;SDS011;5341;47.606;7.576;2023-02-28T04:21:33;4.95;;;3.90;;
10586;SDS011;5341;47.606;7.576;2023-02-28T04:24:01;4.65;;;4.07;;
10586;SDS011;5341;47.606;7.576;2023-02-28T04:26:31;4.55;;;4.07;;
10586;SDS011;5341;47.606;7.576;2023-02-28T04:29:00;5.10;;;3.70;;
10586;SDS011;5341;47.606;7.576;2023-02-28T04:31:28;4.47;;;3.72;;
10586;SDS011;5341;47.606;7.576;2023-02-28T04:33:56;4.57;;;3.83;;
10586;SDS011;5341;47.606;7.576;2023-02-28T04:36:23;4.28;;;3.83;;
10586;SDS011;5341;47.606;7.576;2023-02-28T04:38:50;5.13;;;4.18;;
10586;SDS011;5341;47.606;7.576;2023-02-28T04:41:20;5.22;;;4.45;;
10586;SDS011;5341;47.606;7.576;2023-02-28T04:43:50;4.05;;;3.65;;
10586;SDS011;5341;47.606;7.576;2023-02-28T04:46:17;4.88;;;4.15;;
10586;SDS011;5341;47.606;7.576;2023-02-28T04:48:45;4.68;;;4.18;;
10586;SDS011;5341;47.606;7.576;2023-02-28T04:51:13;7.20;;;3.97;;
10586;SDS011;5341;47.606;7.576;2023-02-28T04:53:42;4.47;;;4.00;;
10586;SDS011;5341;47.606;7.576;2023-02-28T04:56:11;6.50;;;3.80;;
10586;SDS011;5341;47.606;7.576;2023-02-28T04:58:41;4.10;;;3.70;;
10586;SDS011;5341;47.606;7.576;2023-02-28T05:01:16;5.25;;;3.85;;
10586;SDS011;5341;47.606;7.576;2023-02-28T05:03:45;4.10;;;3.70;;
10586;SDS011;5341;47.606;7.576;2023-02-28T05:06:13;5.07;;;4.07;;
10586;SDS011;5341;47.606;7.576;2023-02-28T05:08:41;3.90;;;3.60;;
10586;SDS011;5341;47.606;7.576;2023-02-28T05:11:12;4.00;;;3.60;;
10586;SDS011;5341;47.606;7.576;2023-02-28T05:13:43;4.63;;;3.80;;
10586;SDS011;5341;47.606;7.576;2023-02-28T05:16:11;4.40;;;4.00;;
10586;SDS011;5341;47.606;7.576;2023-02-28T05:18:38;5.57;;;3.90;;
10586;SDS011;5341;47.606;7.576;2023-02-28T05:21:06;5.38;;;3.55;;
10586;SDS011;5341;47.606;7.576;2023-02-28T05:23:50;5.53;;;4.18;;
10586;SDS011;5341;47.606;7.576;2023-02-28T05:26:18;5.57;;;4.15;;
10586;SDS011;5341;47.606;7.576;2023-02-28T05:28:47;4.50;;;4.10;;
10586;SDS011;5341;47.606;7.576;2023-02-28T05:31:15;4.40;;;3.85;;
10586;SDS011;5341;47.606;7.576;2023-02-28T05:33:43;5.07;;;4.47;;
10586;SDS011;5341;47.606;7.576;2023-02-28T05:36:10;4.25;;;3.85;;
10586;SDS011;5341;47.606;7.576;2023-02-28T05:38:38;5.93;;;4.30;;
10586;SDS011;5341;47.606;7.576;2023-02-28T05:41:06;4.57;;;3.90;;
10586;SDS011;5341;47.606;7.576;2023-02-28T05:43:34;4.75;;;3.80;;
10586;SDS011;5341;47.606;7.576;2023-02-28T05:46:05;4.22;;;3.83;;
10586;SDS011;5341;47.606;7.576;2023-02-28T05:48:33;5.78;;;4.47;;
10586;SDS011;5341;47.606;7.576;2023-02-28T05:51:01;4.22;;;3.83;;
10586;SDS011;5341;47.606;7.576;2023-02-28T05:53:29;4.75;;;3.90;;
10586;SDS011;5341;47.606;7.576;2023-02-28T05:55:58;5.18;;;4.57;;
10586;SDS011;5341;47.606;7.576;2023-02-28T05:58:26;5.65;;;4.35;;
10586;SDS011;5341;47.606;7.576;2023-02-28T06:00:56;5.15;;;3.92;;
10586;SDS011;5341;47.606;7.576;2023-02-28T06:03:27;4.63;;;4.07;;
10586;SDS011;5341;47.606;7.576;2023-02-28T06:05:54;4.97;;;4.30;;
10586;SDS011;5341;47.606;7.576;2023-02-28T06:08:22;4.38;;;3.97;;
10586;SDS011;5341;47.606;7.576;2023-02-28T06:10:49;4.53;;;4.03;;
10586;SDS011;5341;47.606;7.576;2023-02-28T06:13:16;4.70;;;4.30;;
10586;SDS011;5341;47.606;7.576;2023-02-28T06:15:44;6.18;;;4.22;;
10586;SDS011;5341;47.606;7.576;2023-02-28T06:18:11;4.47;;;4.07;;
10586;SDS011;5341;47.606;7.576;2023-02-28T06:20:42;4.32;;;3.92;;
10586;SDS011;5341;47.606;7.576;2023-02-28T06:23:09;4.03;;;3.63;;
10586;SDS011;5341;47.606;7.576;2023-02-28T06:25:37;4.85;;;4.22;;
10586;SDS011;5341;47.606;7.576;2023-02-28T06:28:04;5.35;;;4.10;;
10586;SDS011;5341;47.606;7.576;2023-02-28T06:30:31;4.35;;;3.75;;
10586;SDS011;5341;47.606;7.576;2023-02-28T06:32:59;5.90;;;4.18;;
10586;SDS011;5341;47.606;7.576;2023-02-28T06:35:27;5.00;;;3.80;;
10586;SDS011;5341;47.606;7.576;2023-02-28T06:37:56;5.10;;;3.90;;
10586;SDS011;5341;47.606;7.576;2023-02-28T06:40:24;5.00;;;4.50;;
10586;SDS011;5341;47.606;7.576;2023-02-28T06:42:52;4.88;;;3.65;;
10586;SDS011;5341;47.606;7.576;2023-02-28T06:45:19;4.13;;;3.72;;
10586;SDS011;5341;47.606;7.576;2023-02-28T06:47:47;4.95;;;4.45;;
10586;SDS011;5341;47.606;7.576;2023-02-28T06:50:17;5.15;;;4.60;;
10586;SDS011;5341;47.606;7.576;2023-02-28T06:52:46;4.40;;;4.00;;
10586;SDS011;5341;47.606;7.576;2023-02-28T06:55:15;5.28;;;4.05;;
10586;SDS011;5341;47.606;7.576;2023-02-28T06:57:43;4.22;;;3.83;;
10586;SDS011;5341;47.606;7.576;2023-02-28T07:00:16;4.80;;;4.30;;
10586;SDS011;5341;47.606;7.576;2023-02-28T07:02:44;5.13;;;4.18;;
10586;SDS011;5341;47.606;7.576;2023-02-28T07:05:12;4.55;;;4.15;;
10586;SDS011;5341;47.606;7.576;2023-02-28T07:07:40;5.32;;;4.38;;
10586;SDS011;5341;47.606;7.576;2023-02-28T07:10:10;5.25;;;4.15;;
10586;SDS011;5341;47.606;7.576;2023-02-28T07:12:41;4.43;;;4.03;;
10586;SDS011;5341;47.606;7.576;2023-02-28T07:15:09;5.10;;;4.30;;
10586;SDS011;5341;47.606;7.576;2023-02-28T07:17:37;4.38;;;3.95;;
10586;SDS011;5341;47.606;7.576;2023-02-28T07:20:05;4.82;;;4.35;;
10586;SDS011;5341;47.606;7.576;2023-02-28T07:22:34;4.47;;;4.07;;
10586;SDS011;5341;47.606;7.576;2023-02-28T07:25:02;5.00;;;4.50;;
10586;SDS011;5341;47.606;7.576;2023-02-28T07:27:29;4.63;;;4.22;;
10586;SDS011;5341;47.606;7.576;2023-02-28T07:29:58;4.95;;;4.45;;
10586;SDS011;5341;47.606;7.576;2023-02-28T07:32:29;5.30;;;4.70;;
10586;SDS011;5341;47.606;7.576;2023-02-28T07:34:56;7.20;;;4.65;;
10586;SDS011;5341;47.606;7.576;2023-02-28T07:37:24;5.90;;;4.78;;
10586;SDS011;5341;47.606;7.576;2023-02-28T07:39:51;5.25;;;4.60;;
10586;SDS011;5341;47.606;7.576;2023-02-28T07:42:21;6.60;;;4.68;;
10586;SDS011;5341;47.606;7.576;2023-02-28T07:44:50;5.57;;;4.72;;
10586;SDS011;5341;47.606;7.576;2023-02-28T07:47:23;4.93;;;4.40;;
10586;SDS011;5341;47.606;7.576;2023-02-28T07:49:51;5.18;;;4.20;;
10586;SDS011;5341;47.606;7.576;2023-02-28T07:52:19;4.97;;;4.47;;
10586;SDS011;5341;47.606;7.576;2023-02-28T07:54:46;5.57;;;4.32;;
10586;SDS011;5341;47.606;7.576;2023-02-28T07:57:15;4.80;;;4.30;;
10586;SDS011;5341;47.606;7.576;2023-02-28T07:59:44;4.97;;;4.47;;
10586;SDS011;5341;47.606;7.576;2023-02-28T08:02:12;4.80;;;4.25;;
10586;SDS011;5341;47.606;7.576;2023-02-28T08:04:43;4.40;;;3.95;;
10586;SDS011;5341;47.606;7.576;2023-02-28T08:07:12;4.80;;;4.30;;
10586;SDS011;5341;47.606;7.576;2023-02-28T08:09:40;4.75;;;4.18;;
10586;SDS011;5341;47.606;7.576;2023-02-28T08:12:09;4.95;;;4.45;;
10586;SDS011;5341;47.606;7.576;2023-02-28T08:14:38;5.63;;;4.03;;
10586;SDS011;5341;47.606;7.576;2023-02-28T08:17:06;5.30;;;4.35;;
10586;SDS011;5341;47.606;7.576;2023-02-28T08:19:33;5.68;;;4.80;;
10586;SDS011;5341;47.606;7.576;2023-02-28T08:22:05;5.82;;;4.97;;
10586;SDS011;5341;47.606;7.576;2023-02-28T08:24:36;7.88;;;5.90;;
10586;SDS011;5341;47.606;7.576;2023-02-28T08:27:04;10.05;;;7.82;;
10586;SDS011;5341;47.606;7.576;2023-02-28T08:29:31;8.50;;;7.05;;
10586;SDS011;5341;47.606;7.576;2023-02-28T08:32:01;8.93;;;7.43;;
10586;SDS011;5341;47.606;7.576;2023-02-28T08:34:28;8.55;;;6.97;;
10586;SDS011;5341;47.606;7.576;2023-02-28T08:36:56;9.07;;;7.25;;
10586;SDS011;5341;47.606;7.576;2023-02-28T08:39:25;7.68;;;6.88;;
10586;SDS011;5341;47.606;7.576;2023-02-28T08:41:52;7.93;;;5.60;;
10586;SDS011;5341;47.606;7.576;2023-02-28T08:44:20;6.97;;;5.70;;
10586;SDS011;5341;47.606;7.576;2023-02-28T08:46:47;6.53;;;5.93;;
10586;SDS011;5341;47.606;7.576;2023-02-28T08:49:15;6.97;;;5.80;;
10586;SDS011;5341;47.606;7.576;2023-02-28T08:51:44;6.07;;;5.25;;
10586;SDS011;5341;47.606;7.576;2023-02-28T08:54:15;6.35;;;5.75;;
10586;SDS011;5341;47.606;7.576;2023-02-28T08:56:46;6.03;;;5.43;;
10586;SDS011;5341;47.606;7.576;2023-02-28T08:59:13;6.28;;;5.65;;
10586;SDS011;5341;47.606;7.576;2023-02-28T09:01:42;6.60;;;5.90;;
10586;SDS011;5341;47.606;7.576;2023-02-28T09:04:13;7.63;;;5.95;;
10586;SDS011;5341;47.606;7.576;2023-02-28T09:06:42;6.85;;;6.15;;
10586;SDS011;5341;47.606;7.576;2023-02-28T09:09:12;6.75;;;6.05;;
10586;SDS011;5341;47.606;7.576;2023-02-28T09:11:40;7.65;;;6.32;;
10586;SDS011;5341;47.606;7.576;2023-02-28T09:14:11;6.20;;;5.57;;
10586;SDS011;5341;47.606;7.576;2023-02-28T09:16:38;7.28;;;6.57;;
10586;SDS011;5341;47.606;7.576;2023-02-28T09:19:06;7.00;;;6.30;;
10586;SDS011;5341;47.606;7.576;2023-02-28T09:21:33;7.43;;;6.72;;
10586;SDS011;5341;47.606;7.576;2023-02-28T09:24:01;7.93;;;7.13;;
10586;SDS011;5341;47.606;7.576;2023-02-28T09:26:29;7.97;;;6.85;;
10586;SDS011;5341;47.606;7.576;2023-02-28T09:28:57;7.05;;;6.28;;
10586;SDS011;5341;47.606;7.576;2023-02-28T09:31:27;7.65;;;5.93;;
10586;SDS011;5341;47.606;7.576;2023-02-28T09:33:58;6.65;;;6.05;;
10586;SDS011;5341;47.606;7.576;2023-02-28T09:36:26;6.60;;;6.00;;
10586;SDS011;5341;47.606;7.576;2023-02-28T09:38:56;6.88;;;6.00;;
10586;SDS011;5341;47.606;7.576;2023-02-28T09:41:27;6.88;;;5.93;;
10586;SDS011;5341;47.606;7.576;2023-02-28T09:44:09;5.93;;;5.32;;
10586;SDS011;5341;47.606;7.576;2023-02-28T09:46:46;6.57;;;5.97;;
10586;SDS011;5341;47.606;7.576;2023-02-28T09:49:18;6.65;;;5.57;;
10586;SDS011;5341;47.606;7.576;2023-02-28T09:51:50;6.15;;;5.40;;
10586;SDS011;5341;47.606;7.576;2023-02-28T09:54:22;6.07;;;5.30;;
10586;SDS011;5341;47.606;7.576;2023-02-28T09:56:52;6.82;;;6.07;;
10586;SDS011;5341;47.606;7.576;2023-02-28T09:59:29;6.68;;;5.97;;
10586;SDS011;5341;47.606;7.576;2023-02-28T10:02:13;7.70;;;6.90;;
10586;SDS011;5341;47.606;7.576;2023-02-28T10:04:51;8.30;;;6.93;;
10586;SDS011;5341;47.606;7.576;2023-02-28T10:07:40;9.70;;;6.70;;
10586;SDS011;5341;47.606;7.576;2023-02-28T10:10:23;7.88;;;6.78;;
10586;SDS011;5341;47.606;7.576;2023-02-28T10:12:55;7.57;;;6.45;;
10586;SDS011;5341;47.606;7.576;2023-02-28T10:15:26;7.43;;;6.50;;
10586;SDS011;5341;47.606;7.576;2023-02-28T10:17:58;7.38;;;6.15;;
10586;SDS011;5341;47.606;7.576;2023-02-28T10:20:29;7.32;;;6.05;;
10586;SDS011;5341;47.606;7.576;2023-02-28T10:23:02;6.72;;;5.85;;
10586;SDS011;5341;47.606;7.576;2023-02-28T10:25:36;6.55;;;5.88;;
10586;SDS011;5341;47.606;7.576;2023-02-28T10:28:10;9.15;;;6.80;;
10586;SDS011;5341;47.606;7.576;2023-02-28T10:30:39;7.07;;;6.35;;
10586;SDS011;5341;47.606;7.576;2023-02-28T10:33:15;6.18;;;5.55;;
10586;SDS011;5341;47.606;7.576;2023-02-28T10:35:46;7.55;;;6.68;;
10586;SDS011;5341;47.606;7.576;2023-02-28T10:38:18;6.60;;;5.95;;
10586;SDS011;5341;47.606;7.576;2023-02-28T10:40:47;8.35;;;7.13;;
10586;SDS011;5341;47.606;7.576;2023-02-28T10:43:20;8.75;;;7.13;;
10586;SDS011;5341;47.606;7.576;2023-02-28T10:45:55;7.82;;;6.97;;
10586;SDS011;5341;47.606;7.576;2023-02-28T10:48:37;7.68;;;6.93;;
10586;SDS011;5341;47.606;7.576;2023-02-28T10:51:08;7.63;;;6.93;;
10586;SDS011;5341;47.606;7.576;2023-02-28T10:53:39;7.70;;;6.95;;
10586;SDS011;5341;47.606;7.576;2023-02-28T10:56:16;7.80;;;7.00;;
10586;SDS011;5341;47.606;7.576;2023-02-28T10:58:52;7.28;;;6.53;;
10586;SDS011;5341;47.606;7.576;2023-02-28T11:01:23;7.40;;;6.60;;
10586;SDS011;5341;47.606;7.576;2023-02-28T11:04:03;10.25;;;6.60;;
10586;SDS011;5341;47.606;7.576;2023-02-28T11:06:46;7.20;;;6.50;;
10586;SDS011;5341;47.606;7.576;2023-02-28T11:09:17;7.10;;;6.40;;
10586;SDS011;5341;47.606;7.576;2023-02-28T11:11:49;7.57;;;6.78;;
10586;SDS011;5341;47.606;7.576;2023-02-28T11:14:20;7.10;;;6.40;;
10586;SDS011;5341;47.606;7.576;2023-02-28T11:16:52;8.48;;;7.28;;
10586;SDS011;5341;47.606;7.576;2023-02-28T11:19:27;6.70;;;6.10;;
10586;SDS011;5341;47.606;7.576;2023-02-28T11:22:00;7.43;;;6.50;;
10586;SDS011;5341;47.606;7.576;2023-02-28T11:24:31;7.82;;;7.03;;
10586;SDS011;5341;47.606;7.576;2023-02-28T11:29:36;7.65;;;6.80;;
10586;SDS011;5341;47.606;7.576;2023-02-28T11:32:21;7.43;;;6.70;;
10586;SDS011;5341;47.606;7.576;2023-02-28T11:35:01;8.60;;;6.72;;
10586;SDS011;5341;47.606;7.576;2023-02-28T11:37:40;7.53;;;6.78;;
10586;SDS011;5341;47.606;7.576;2023-02-28T11:40:09;8.73;;;6.63;;
10586;SDS011;5341;47.606;7.576;2023-02-28T11:42:52;7.28;;;6.57;;
10586;SDS011;5341;47.606;7.576;2023-02-28T11:45:42;7.10;;;6.40;;
10586;SDS011;5341;47.606;7.576;2023-02-28T11:48:19;7.00;;;6.30;;
10586;SDS011;5341;47.606;7.576;2023-02-28T11:51:06;8.57;;;6.03;;
10586;SDS011;5341;47.606;7.576;2023-02-28T11:53:47;7.05;;;6.35;;
10586;SDS011;5341;47.606;7.576;2023-02-28T11:56:32;7.47;;;6.20;;
10586;SDS011;5341;47.606;7.576;2023-02-28T11:59:15;7.32;;;6.20;;
10586;SDS011;5341;47.606;7.576;2023-02-28T12:02:06;6.57;;;5.90;;
10586;SDS011;5341;47.606;7.576;2023-02-28T12:04:53;6.60;;;6.00;;
10586;SDS011;5341;47.606;7.576;2023-02-28T12:07:39;6.53;;;5.93;;
10586;SDS011;5341;47.606;7.576;2023-02-28T12:10:18;6.07;;;5.47;;
10586;SDS011;5341;47.606;7.576;2023-02-28T12:13:01;6.47;;;5.78;;
10586;SDS011;5341;47.606;7.576;2023-02-28T12:18:45;7.82;;;7.03;;
10586;SDS011;5341;47.606;7.576;2023-02-28T12:21:36;7.90;;;6.68;;
10586;SDS011;5341;47.606;7.576;2023-02-28T12:27:18;8.73;;;7.07;;
10586;SDS011;5341;47.606;7.576;2023-02-28T12:29:50;7.00;;;6.30;;
10586;SDS011;5341;47.606;7.576;2023-02-28T12:32:21;7.85;;;6.93;;
10586;SDS011;5341;47.606;7.576;2023-02-28T12:34:52;7.18;;;6.47;;
10586;SDS011;5341;47.606;7.576;2023-02-28T12:37:25;7.55;;;6.10;;
10586;SDS011;5341;47.606;7.576;2023-02-28T12:40:01;6.80;;;6.10;;
10586;SDS011;5341;47.606;7.576;2023-02-28T12:42:33;6.90;;;5.95;;
10586;SDS011;5341;47.606;7.576;2023-02-28T12:45:09;7.47;;;6.32;;
10586;SDS011;5341;47.606;7.576;2023-02-28T12:47:42;7.03;;;6.00;;
10586;SDS011;5341;47.606;7.576;2023-02-28T12:50:14;6.43;;;5.82;;
10586;SDS011;5341;47.606;7.576;2023-02-28T12:52:48;7.50;;;6.60;;
10586;SDS011;5341;47.606;7.576;2023-02-28T12:58:23;7.60;;;6.80;;
10586;SDS011;5341;47.606;7.576;2023-02-28T13:01:05;7.57;;;6.60;;
10586;SDS011;5341;47.606;7.576;2023-02-28T13:03:59;6.60;;;5.97;;
10586;SDS011;5341;47.606;7.576;2023-02-28T13:06:49;6.88;;;6.25;;
10586;SDS011;5341;47.606;7.576;2023-02-28T13:09:34;7.00;;;6.30;;
10586;SDS011;5341;47.606;7.576;2023-02-28T13:12:02;7.60;;;6.53;;
10586;SDS011;5341;47.606;7.576;2023-02-28T13:14:42;7.10;;;6.28;;
10586;SDS011;5341;47.606;7.576;2023-02-28T13:17:10;6.95;;;6.25;;
10586;SDS011;5341;47.606;7.576;2023-02-28T13:19:40;7.53;;;6.82;;
10586;SDS011;5341;47.606;7.576;2023-02-28T13:22:36;7.93;;;6.72;;
10586;SDS011;5341;47.606;7.576;2023-02-28T16:51:02;13.60;;;10.70;;
10586;SDS011;5341;47.606;7.576;2023-02-28T16:53:30;13.73;;;11.00;;
10586;SDS011;5341;47.606;7.576;2023-02-28T16:55:57;12.38;;;10.38;;
10586;SDS011;5341;47.606;7.576;2023-02-28T16:58:27;11.98;;;10.35;;
10586;SDS011;5341;47.606;7.576;2023-02-28T17:00:54;13.25;;;10.63;;
10586;SDS011;5341;47.606;7.576;2023-02-28T17:03:23;11.45;;;10.25;;
10586;SDS011;5341;47.606;7.576;2023-02-28T17:05:51;11.27;;;10.13;;
10586;SDS011;5341;47.606;7.576;2023-02-28T17:08:26;11.98;;;10.30;;
10586;SDS011;5341;47.606;7.576;2023-02-28T17:10:54;13.73;;;11.30;;
10586;SDS011;5341;47.606;7.576;2023-02-28T17:13:24;12.18;;;10.57;;
10586;SDS011;5341;47.606;7.576;2023-02-28T17:15:51;11.68;;;10.15;;
10586;SDS011;5341;47.606;7.576;2023-02-28T17:18:23;11.02;;;9.85;;
10586;SDS011;5341;47.606;7.576;2023-02-28T17:21:01;11.32;;;10.13;;
10586;SDS011;5341;47.606;7.576;2023-02-28T17:23:30;10.88;;;9.40;;
10586;SDS011;5341;47.606;7.576;2023-02-28T17:26:00;14.07;;;10.43;;
10586;SDS011;5341;47.606;7.576;2023-02-28T17:28:27;11.13;;;9.95;;
10586;SDS011;5341;47.606;7.576;2023-02-28T17:30:55;10.85;;;9.75;;
10586;SDS011;5341;47.606;7.576;2023-02-28T17:33:25;13.82;;;10.63;;
10586;SDS011;5341;47.606;7.576;2023-02-28T17:35:55;11.38;;;10.18;;
10586;SDS011;5341;47.606;7.576;2023-02-28T17:38:23;11.50;;;10.20;;
10586;SDS011;5341;47.606;7.576;2023-02-28T17:40:53;12.60;;;9.65;;
10586;SDS011;5341;47.606;7.576;2023-02-28T17:43:22;12.05;;;10.75;;
10586;SDS011;5341;47.606;7.576;2023-02-28T17:45:50;11.50;;;10.30;;
10586;SDS011;5341;47.606;7.576;2023-02-28T17:48:18;12.15;;;10.73;;
10586;SDS011;5341;47.606;7.576;2023-02-28T17:50:45;11.15;;;9.90;;
10586;SDS011;5341;47.606;7.576;2023-02-28T17:53:15;10.45;;;9.35;;
10586;SDS011;5341;47.606;7.576;2023-02-28T17:55:43;11.05;;;9.85;;
10586;SDS011;5341;47.606;7.576;2023-02-28T17:58:14;12.60;;;10.02;;
10586;SDS011;5341;47.606;7.576;2023-02-28T18:00:46;11.45;;;9.63;;
10586;SDS011;5341;47.606;7.576;2023-02-28T18:03:19;11.23;;;10.13;;
10586;SDS011;5341;47.606;7.576;2023-02-28T18:05:47;11.60;;;9.82;;
10586;SDS011;5341;47.606;7.576;2023-02-28T18:08:16;11.07;;;9.68;;
10586;SDS011;5341;47.606;7.576;2023-02-28T18:10:45;13.95;;;11.02;;
10586;SDS011;5341;47.606;7.576;2023-02-28T18:13:15;11.80;;;10.30;;
10586;SDS011;5341;47.606;7.576;2023-02-28T18:15:44;11.15;;;10.05;;
10586;SDS011;5341;47.606;7.576;2023-02-28T18:18:17;12.13;;;9.82;;
10586;SDS011;5341;47.606;7.576;2023-02-28T18:20:45;11.20;;;10.10;;
10586;SDS011;5341;47.606;7.576;2023-02-28T18:23:15;11.20;;;10.10;;
10586;SDS011;5341;47.606;7.576;2023-02-28T18:25:44;11.52;;;10.25;;
10586;SDS011;5341;47.606;7.576;2023-02-28T18:28:12;13.10;;;9.55;;
10586;SDS011;5341;47.606;7.576;2023-02-28T18:30:41;11.10;;;9.93;;
10586;SDS011;5341;47.606;7.576;2023-02-28T18:33:08;13.52;;;10.88;;
10586;SDS011;5341;47.606;7.576;2023-02-28T18:35:36;11.43;;;10.23;;
10586;SDS011;5341;47.606;7.576;2023-02-28T18:38:05;12.88;;;10.18;;
10586;SDS011;5341;47.606;7.576;2023-02-28T18:40:34;16.42;;;10.23;;
10586;SDS011;5341;47.606;7.576;2023-02-28T18:43:03;22.63;;;11.32;;
10586;SDS011;5341;47.606;7.576;2023-02-28T18:45:31;23.60;;;11.60;;
10586;SDS011;5341;47.606;7.576;2023-02-28T18:48:02;16.77;;;11.05;;
10586;SDS011;5341;47.606;7.576;2023-02-28T18:50:29;16.17;;;10.98;;
10586;SDS011;5341;47.606;7.576;2023-02-28T18:52:57;18.42;;;10.48;;
10586;SDS011;5341;47.606;7.576;2023-02-28T18:55:26;13.82;;;11.38;;
10586;SDS011;5341;47.606;7.576;2023-02-28T18:57:53;18.80;;;11.38;;
10586;SDS011;5341;47.606;7.576;2023-02-28T19:00:21;17.15;;;11.52;;
10586;SDS011;5341;47.606;7.576;2023-02-28T19:05:35;24.40;;;11.52;;
10586;SDS011;5341;47.606;7.576;2023-02-28T19:08:03;15.07;;;12.88;;
10586;SDS011;5341;47.606;7.576;2023-02-28T19:10:31;15.48;;;11.25;;
10586;SDS011;5341;47.606;7.576;2023-02-28T19:12:58;14.90;;;12.27;;